TimeMST,TemperatureF,Dew PointF,Humidity,Sea Level PressureIn,VisibilityMPH,Wind Direction,Wind SpeedMPH,Gust SpeedMPH,PrecipitationIn,Events,Conditions,WindDirDegrees,DateUTC
12:15 AM,59.0,57.2,94,30.37,10.0,SSE,6.9,-,N/A,,Scattered Clouds,160,2013-07-23 07:15:00
12:35 AM,59.0,57.2,94,30.37,10.0,SSE,5.8,-,N/A,,Mostly Cloudy,150,2013-07-23 07:35:00
12:55 AM,59.0,57.2,94,30.37,10.0,SSE,5.8,-,N/A,,Overcast,160,2013-07-23 07:55:00
1:15 AM,59.0,57.2,94,30.37,10.0,Calm,Calm,-,N/A,,Scattered Clouds,0,2013-07-23 08:15:00
1:35 AM,57.2,57.2,100,30.37,10.0,SSE,5.8,-,N/A,,Clear,160,2013-07-23 08:35:00
1:55 AM,57.2,57.2,100,30.36,10.0,SE,6.9,-,N/A,,Partly Cloudy,140,2013-07-23 08:55:00
2:15 AM,57.2,57.2,100,30.36,10.0,SSE,6.9,-,N/A,,Scattered Clouds,150,2013-07-23 09:15:00
2:35 AM,57.2,55.4,94,30.36,10.0,SSE,4.6,-,N/A,,Partly Cloudy,160,2013-07-23 09:35:00
2:55 AM,57.2,55.4,94,30.35,10.0,Calm,Calm,-,N/A,,Clear,0,2013-07-23 09:55:00
3:15 AM,55.4,55.4,100,30.35,10.0,Calm,Calm,-,N/A,,Clear,0,2013-07-23 10:15:00
3:35 AM,55.4,55.4,100,30.34,10.0,South,5.8,-,N/A,,Clear,190,2013-07-23 10:35:00
3:55 AM,55.4,53.6,94,30.33,10.0,Calm,Calm,-,N/A,,Clear,0,2013-07-23 10:55:00
4:15 AM,55.4,53.6,94,30.33,10.0,SSE,5.8,-,N/A,,Clear,160,2013-07-23 11:15:00
4:35 AM,55.4,53.6,94,30.33,10.0,Calm,Calm,-,N/A,,Clear,0,2013-07-23 11:35:00
4:55 AM,55.4,53.6,94,30.33,10.0,Calm,Calm,-,N/A,,Clear,0,2013-07-23 11:55:00
5:15 AM,57.2,55.4,94,30.33,10.0,Calm,Calm,-,N/A,,Clear,0,2013-07-23 12:15:00
5:35 AM,55.4,53.6,94,30.34,10.0,Calm,Calm,-,N/A,,Clear,0,2013-07-23 12:35:00
5:55 AM,55.4,53.6,94,30.35,10.0,Calm,Calm,-,N/A,,Clear,0,2013-07-23 12:55:00
6:15 AM,57.2,55.4,94,30.35,10.0,Calm,Calm,-,N/A,,Clear,0,2013-07-23 13:15:00
6:35 AM,59.0,57.2,94,30.36,10.0,Calm,Calm,-,N/A,,Partly Cloudy,0,2013-07-23 13:35:00
6:55 AM,59.0,57.2,94,30.37,10.0,Calm,Calm,-,N/A,,Partly Cloudy,0,2013-07-23 13:55:00
7:15 AM,60.8,57.2,88,30.38,10.0,Calm,Calm,-,N/A,,Clear,0,2013-07-23 14:15:00
7:35 AM,60.8,57.2,88,30.38,10.0,Calm,Calm,-,N/A,,Clear,0,2013-07-23 14:35:00
7:55 AM,62.6,57.2,82,30.39,10.0,Calm,Calm,-,N/A,,Partly Cloudy,0,2013-07-23 14:55:00
8:15 AM,64.4,57.2,77,30.39,10.0,Calm,Calm,-,N/A,,Partly Cloudy,0,2013-07-23 15:15:00
8:35 AM,66.2,59.0,78,30.39,10.0,WNW,3.5,-,N/A,,Clear,300,2013-07-23 15:35:00
8:55 AM,68.0,57.2,68,30.39,10.0,WNW,9.2,-,N/A,,Clear,290,2013-07-23 15:55:00
9:15 AM,68.0,57.2,68,30.39,10.0,WNW,5.8,-,N/A,,Scattered Clouds,300,2013-07-23 16:15:00
9:35 AM,69.8,57.2,64,30.39,10.0,Calm,Calm,-,N/A,,Partly Cloudy,0,2013-07-23 16:35:00
9:55 AM,69.8,57.2,64,30.39,10.0,WNW,5.8,-,N/A,,Scattered Clouds,300,2013-07-23 16:55:00
10:15 AM,71.6,57.2,60,30.40,10.0,NNW,6.9,-,N/A,,Mostly Cloudy,330,2013-07-23 17:15:00
10:35 AM,71.6,59.0,64,30.39,-9999.0,NW,5.8,-,N/A,,Mostly Cloudy,310,2013-07-23 17:35:00
10:55 AM,71.6,57.2,60,30.39,10.0,NW,9.2,-,N/A,,Mostly Cloudy,310,2013-07-23 17:55:00
11:15 AM,73.4,57.2,57,30.39,10.0,Calm,Calm,-,N/A,,Scattered Clouds,0,2013-07-23 18:15:00
11:35 AM,71.6,57.2,60,30.38,10.0,WNW,9.2,-,N/A,,Mostly Cloudy,290,2013-07-23 18:35:00
11:55 AM,73.4,57.2,57,30.37,10.0,West,3.5,-,N/A,,Scattered Clouds,260,2013-07-23 18:55:00
12:15 PM,75.2,57.2,53,30.37,10.0,NW,3.5,-,N/A,,Partly Cloudy,310,2013-07-23 19:15:00
12:35 PM,75.2,55.4,50,30.36,10.0,NNW,5.8,-,N/A,,Partly Cloudy,330,2013-07-23 19:35:00
1:15 PM,73.4,55.4,53,30.36,10.0,WNW,4.6,-,N/A,,Overcast,300,2013-07-23 20:15:00
1:35 PM,73.4,57.2,57,30.35,10.0,West,6.9,-,N/A,,Overcast,280,2013-07-23 20:35:00
1:55 PM,64.4,59.0,83,30.36,1.5,SE,10.4,20.7,0.17,,Overcast,140,2013-07-23 20:55:00
2:15 PM,64.4,60.8,88,30.35,3.0,SSW,5.8,-,0.06,,Mostly Cloudy,210,2013-07-23 21:15:00
2:35 PM,62.6,59.0,88,30.36,7.0,SE,12.7,17.3,0.08,,Mostly Cloudy,140,2013-07-23 21:35:00
2:55 PM,62.6,59.0,88,30.35,10.0,SE,11.5,-,0.08,,Mostly Cloudy,140,2013-07-23 21:55:00
3:15 PM,64.4,60.8,88,30.34,10.0,SE,9.2,-,N/A,,Scattered Clouds,140,2013-07-23 22:15:00
3:35 PM,71.6,59.0,64,30.34,10.0,Calm,Calm,-,N/A,,Clear,0,2013-07-23 22:35:00
3:55 PM,68.0,59.0,73,30.34,10.0,SSE,8.1,-,N/A,,Clear,150,2013-07-23 22:55:00
4:15 PM,66.2,59.0,78,30.36,10.0,Calm,Calm,-,N/A,,Scattered Clouds,0,2013-07-23 23:15:00
4:35 PM,64.4,57.2,77,30.35,6.0,West,9.2,17.3,0.01,,Scattered Clouds,270,2013-07-23 23:35:00
4:55 PM,59.0,57.2,94,30.34,9.0,WSW,3.5,-,0.03,,Mostly Cloudy,240,2013-07-23 23:55:00
5:15 PM,60.8,59.0,94,30.32,10.0,SE,8.1,-,N/A,,Partly Cloudy,140,2013-07-24 00:15:00
5:35 PM,62.6,59.0,88,30.32,10.0,Calm,Calm,-,N/A,,Clear,0,2013-07-24 00:35:00
5:55 PM,62.6,57.2,82,30.33,10.0,South,5.8,-,N/A,,Clear,190,2013-07-24 00:55:00
6:15 PM,62.6,57.2,82,30.33,10.0,SE,4.6,-,N/A,,Clear,140,2013-07-24 01:15:00
6:35 PM,62.6,59.0,88,30.33,10.0,Calm,Calm,-,N/A,,Clear,0,2013-07-24 01:35:00
6:55 PM,62.6,59.0,88,30.33,10.0,South,6.9,-,N/A,,Partly Cloudy,170,2013-07-24 01:55:00
7:15 PM,62.6,59.0,88,30.33,10.0,South,5.8,-,N/A,,Scattered Clouds,170,2013-07-24 02:15:00
7:35 PM,62.6,59.0,88,30.33,10.0,Calm,Calm,-,N/A,,Partly Cloudy,0,2013-07-24 02:35:00
7:55 PM,62.6,59.0,88,30.33,10.0,SSE,8.1,-,N/A,,Clear,160,2013-07-24 02:55:00
8:15 PM,62.6,57.2,82,30.33,10.0,South,5.8,-,N/A,,Partly Cloudy,180,2013-07-24 03:15:00
8:35 PM,60.8,57.2,88,30.34,10.0,Calm,Calm,-,N/A,,Clear,0,2013-07-24 03:35:00
8:55 PM,59.0,57.2,94,30.35,10.0,SSE,5.8,-,N/A,,Clear,160,2013-07-24 03:55:00
9:15 PM,59.0,57.2,94,30.36,10.0,Calm,Calm,-,N/A,,Clear,0,2013-07-24 04:15:00
9:35 PM,59.0,57.2,94,30.36,10.0,SE,6.9,-,N/A,,Clear,130,2013-07-24 04:35:00
9:55 PM,59.0,55.4,88,30.36,10.0,SSE,9.2,-,N/A,,Clear,150,2013-07-24 04:55:00
10:15 PM,57.2,55.4,94,30.36,10.0,SSE,8.1,-,N/A,,Clear,160,2013-07-24 05:15:00
10:35 PM,57.2,55.4,94,30.36,10.0,South,8.1,-,N/A,,Clear,170,2013-07-24 05:35:00
10:55 PM,57.2,55.4,94,30.36,10.0,SSE,6.9,-,N/A,,Clear,160,2013-07-24 05:55:00
11:15 PM,57.2,55.4,94,30.36,10.0,SE,10.4,-,N/A,,Clear,130,2013-07-24 06:15:00
11:35 PM,57.2,55.4,94,30.36,10.0,SSE,8.1,-,N/A,,Partly Cloudy,160,2013-07-24 06:35:00
11:55 PM,57.2,55.4,94,30.36,10.0,South,6.9,-,N/A,,Clear,170,2013-07-24 06:55:00